sensor_id;sensor_type;location;lat;lon;timestamp;temperature;humidity
44886;DHT22;36669;51.428;21.162;2024-03-17T00:01:17;7.50;99.90
44886;DHT22;36669;51.428;21.162;2024-03-17T00:03:44;7.40;99.90
44886;DHT22;36669;51.428;21.162;2024-03-17T00:06:11;7.40;99.90
44886;DHT22;36669;51.428;21.162;2024-03-17T00:08:37;7.20;99.90
44886;DHT22;36669;51.428;21.162;2024-03-17T00:11:04;7.20;99.90
44886;DHT22;36669;51.428;21.162;2024-03-17T00:13:32;7.00;99.90
44886;DHT22;36669;51.428;21.162;2024-03-17T00:15:58;6.90;99.90
44886;DHT22;36669;51.428;21.162;2024-03-17T00:18:25;6.80;99.90
44886;DHT22;36669;51.428;21.162;2024-03-17T00:20:54;6.80;99.90
44886;DHT22;36669;51.428;21.162;2024-03-17T00:23:21;6.70;99.90
44886;DHT22;36669;51.428;21.162;2024-03-17T00:25:47;6.70;99.90
44886;DHT22;36669;51.428;21.162;2024-03-17T00:28:13;6.60;99.90
44886;DHT22;36669;51.428;21.162;2024-03-17T00:30:38;6.50;99.90
44886;DHT22;36669;51.428;21.162;2024-03-17T00:33:04;6.50;99.90
44886;DHT22;36669;51.428;21.162;2024-03-17T00:35:32;6.50;99.90
44886;DHT22;36669;51.428;21.162;2024-03-17T00:38:00;6.50;99.90
44886;DHT22;36669;51.428;21.162;2024-03-17T00:40:30;6.50;99.90
44886;DHT22;36669;51.428;21.162;2024-03-17T00:42:58;6.40;99.90
44886;DHT22;36669;51.428;21.162;2024-03-17T00:45:26;6.40;99.90
44886;DHT22;36669;51.428;21.162;2024-03-17T00:47:53;6.40;99.90
44886;DHT22;36669;51.428;21.162;2024-03-17T00:50:19;6.30;99.90
44886;DHT22;36669;51.428;21.162;2024-03-17T00:52:47;6.30;99.90
44886;DHT22;36669;51.428;21.162;2024-03-17T00:55:15;6.30;99.90
44886;DHT22;36669;51.428;21.162;2024-03-17T00:57:42;6.30;99.90
44886;DHT22;36669;51.428;21.162;2024-03-17T01:00:10;6.20;99.90
44886;DHT22;36669;51.428;21.162;2024-03-17T01:02:37;6.20;99.90
44886;DHT22;36669;51.428;21.162;2024-03-17T01:05:05;6.20;99.90
44886;DHT22;36669;51.428;21.162;2024-03-17T01:07:31;6.10;99.90
44886;DHT22;36669;51.428;21.162;2024-03-17T01:09:58;6.00;99.90
44886;DHT22;36669;51.428;21.162;2024-03-17T01:12:25;6.10;99.90
44886;DHT22;36669;51.428;21.162;2024-03-17T01:14:52;6.00;99.90
44886;DHT22;36669;51.428;21.162;2024-03-17T01:17:20;6.10;99.90
44886;DHT22;36669;51.428;21.162;2024-03-17T01:19:46;6.00;99.90
44886;DHT22;36669;51.428;21.162;2024-03-17T01:22:14;5.90;99.90
44886;DHT22;36669;51.428;21.162;2024-03-17T01:24:40;5.90;99.90
44886;DHT22;36669;51.428;21.162;2024-03-17T01:27:12;5.90;99.90
44886;DHT22;36669;51.428;21.162;2024-03-17T01:29:41;5.90;99.90
44886;DHT22;36669;51.428;21.162;2024-03-17T01:32:10;5.90;99.90
44886;DHT22;36669;51.428;21.162;2024-03-17T01:34:40;5.80;99.90
44886;DHT22;36669;51.428;21.162;2024-03-17T01:37:07;5.90;99.90
44886;DHT22;36669;51.428;21.162;2024-03-17T01:39:35;5.90;99.90
44886;DHT22;36669;51.428;21.162;2024-03-17T01:42:02;5.90;99.90
44886;DHT22;36669;51.428;21.162;2024-03-17T01:44:30;5.90;99.90
44886;DHT22;36669;51.428;21.162;2024-03-17T01:46:58;5.90;99.90
44886;DHT22;36669;51.428;21.162;2024-03-17T01:49:28;5.80;99.90
44886;DHT22;36669;51.428;21.162;2024-03-17T01:51:57;5.80;99.90
44886;DHT22;36669;51.428;21.162;2024-03-17T01:54:24;5.80;99.90
44886;DHT22;36669;51.428;21.162;2024-03-17T01:56:51;5.80;99.90
44886;DHT22;36669;51.428;21.162;2024-03-17T01:59:18;5.80;99.90
44886;DHT22;36669;51.428;21.162;2024-03-17T02:01:44;5.80;99.90
44886;DHT22;36669;51.428;21.162;2024-03-17T02:04:11;5.80;99.90
44886;DHT22;36669;51.428;21.162;2024-03-17T02:06:38;5.80;99.90
44886;DHT22;36669;51.428;21.162;2024-03-17T02:09:06;5.80;99.90
44886;DHT22;36669;51.428;21.162;2024-03-17T02:11:34;5.80;99.90
44886;DHT22;36669;51.428;21.162;2024-03-17T02:14:00;5.80;99.90
44886;DHT22;36669;51.428;21.162;2024-03-17T02:16:30;5.80;99.90
44886;DHT22;36669;51.428;21.162;2024-03-17T02:18:57;5.80;99.90
44886;DHT22;36669;51.428;21.162;2024-03-17T02:21:25;5.80;99.90
44886;DHT22;36669;51.428;21.162;2024-03-17T02:23:56;5.70;99.90
44886;DHT22;36669;51.428;21.162;2024-03-17T02:26:25;5.70;99.90
44886;DHT22;36669;51.428;21.162;2024-03-17T02:28:50;5.70;99.90
44886;DHT22;36669;51.428;21.162;2024-03-17T02:31:17;5.70;99.90
44886;DHT22;36669;51.428;21.162;2024-03-17T02:33:44;5.70;99.90
44886;DHT22;36669;51.428;21.162;2024-03-17T02:36:12;5.70;99.90
44886;DHT22;36669;51.428;21.162;2024-03-17T02:38:39;5.70;99.90
44886;DHT22;36669;51.428;21.162;2024-03-17T02:41:25;5.70;99.90
44886;DHT22;36669;51.428;21.162;2024-03-17T02:43:52;5.70;99.90
44886;DHT22;36669;51.428;21.162;2024-03-17T02:46:19;5.70;99.90
44886;DHT22;36669;51.428;21.162;2024-03-17T02:48:50;5.70;99.90
44886;DHT22;36669;51.428;21.162;2024-03-17T02:51:17;5.70;99.90
44886;DHT22;36669;51.428;21.162;2024-03-17T02:53:48;5.70;99.90
44886;DHT22;36669;51.428;21.162;2024-03-17T02:56:26;5.70;99.90
44886;DHT22;36669;51.428;21.162;2024-03-17T02:58:52;5.70;99.90
44886;DHT22;36669;51.428;21.162;2024-03-17T03:01:21;5.60;99.90
44886;DHT22;36669;51.428;21.162;2024-03-17T03:03:48;5.60;99.90
44886;DHT22;36669;51.428;21.162;2024-03-17T03:06:15;5.60;99.90
44886;DHT22;36669;51.428;21.162;2024-03-17T03:08:46;5.50;99.90
44886;DHT22;36669;51.428;21.162;2024-03-17T03:11:21;5.60;99.90
44886;DHT22;36669;51.428;21.162;2024-03-17T03:13:48;5.50;99.90
44886;DHT22;36669;51.428;21.162;2024-03-17T03:16:15;5.60;99.90
44886;DHT22;36669;51.428;21.162;2024-03-17T03:18:42;5.50;99.90
44886;DHT22;36669;51.428;21.162;2024-03-17T03:21:11;5.40;99.90
44886;DHT22;36669;51.428;21.162;2024-03-17T03:23:40;5.40;99.90
44886;DHT22;36669;51.428;21.162;2024-03-17T03:26:07;5.40;99.90
44886;DHT22;36669;51.428;21.162;2024-03-17T03:28:36;5.40;99.90
44886;DHT22;36669;51.428;21.162;2024-03-17T03:31:05;5.40;99.90
44886;DHT22;36669;51.428;21.162;2024-03-17T03:33:34;5.30;99.90
44886;DHT22;36669;51.428;21.162;2024-03-17T03:36:10;5.30;99.90
44886;DHT22;36669;51.428;21.162;2024-03-17T03:38:38;5.30;99.90
44886;DHT22;36669;51.428;21.162;2024-03-17T03:41:14;5.30;99.90
44886;DHT22;36669;51.428;21.162;2024-03-17T03:43:42;5.20;99.90
44886;DHT22;36669;51.428;21.162;2024-03-17T03:46:10;5.10;99.90
44886;DHT22;36669;51.428;21.162;2024-03-17T03:48:39;5.10;99.90
44886;DHT22;36669;51.428;21.162;2024-03-17T03:51:06;5.10;99.90
44886;DHT22;36669;51.428;21.162;2024-03-17T03:53:33;5.10;99.90
44886;DHT22;36669;51.428;21.162;2024-03-17T03:56:06;5.00;99.90
44886;DHT22;36669;51.428;21.162;2024-03-17T03:58:36;5.00;99.90
44886;DHT22;36669;51.428;21.162;2024-03-17T04:01:06;5.00;99.90
44886;DHT22;36669;51.428;21.162;2024-03-17T04:03:33;5.10;99.90
44886;DHT22;36669;51.428;21.162;2024-03-17T04:06:10;5.00;99.90
44886;DHT22;36669;51.428;21.162;2024-03-17T04:08:37;5.00;99.90
44886;DHT22;36669;51.428;21.162;2024-03-17T04:11:06;5.10;99.90
44886;DHT22;36669;51.428;21.162;2024-03-17T04:13:33;5.10;99.90
44886;DHT22;36669;51.428;21.162;2024-03-17T04:16:00;5.10;99.90
44886;DHT22;36669;51.428;21.162;2024-03-17T04:18:28;5.00;99.90
44886;DHT22;36669;51.428;21.162;2024-03-17T04:21:05;5.10;99.90
44886;DHT22;36669;51.428;21.162;2024-03-17T04:23:32;5.00;99.90
44886;DHT22;36669;51.428;21.162;2024-03-17T04:25:59;5.00;99.90
44886;DHT22;36669;51.428;21.162;2024-03-17T04:28:28;5.00;99.90
44886;DHT22;36669;51.428;21.162;2024-03-17T04:31:05;5.00;99.90
44886;DHT22;36669;51.428;21.162;2024-03-17T04:33:34;5.00;99.90
44886;DHT22;36669;51.428;21.162;2024-03-17T04:36:04;5.00;99.90
44886;DHT22;36669;51.428;21.162;2024-03-17T04:38:31;5.00;99.90
44886;DHT22;36669;51.428;21.162;2024-03-17T04:40:58;5.00;99.90
44886;DHT22;36669;51.428;21.162;2024-03-17T04:43:32;5.00;99.90
44886;DHT22;36669;51.428;21.162;2024-03-17T04:46:06;5.00;99.90
44886;DHT22;36669;51.428;21.162;2024-03-17T04:48:33;5.00;99.90
44886;DHT22;36669;51.428;21.162;2024-03-17T04:51:00;5.00;99.90
44886;DHT22;36669;51.428;21.162;2024-03-17T04:53:28;5.00;99.90
44886;DHT22;36669;51.428;21.162;2024-03-17T04:56:05;4.90;99.90
44886;DHT22;36669;51.428;21.162;2024-03-17T04:58:34;4.90;99.90
44886;DHT22;36669;51.428;21.162;2024-03-17T05:01:11;4.80;99.90
44886;DHT22;36669;51.428;21.162;2024-03-17T05:03:42;4.70;99.90
44886;DHT22;36669;51.428;21.162;2024-03-17T05:06:09;4.80;99.90
44886;DHT22;36669;51.428;21.162;2024-03-17T05:08:37;4.70;99.90
44886;DHT22;36669;51.428;21.162;2024-03-17T05:11:04;4.80;99.90
44886;DHT22;36669;51.428;21.162;2024-03-17T05:13:36;4.70;99.90
44886;DHT22;36669;51.428;21.162;2024-03-17T05:16:06;4.80;99.90
44886;DHT22;36669;51.428;21.162;2024-03-17T05:18:32;4.70;99.90
44886;DHT22;36669;51.428;21.162;2024-03-17T05:21:08;4.70;99.90
44886;DHT22;36669;51.428;21.162;2024-03-17T05:23:37;4.70;99.90
44886;DHT22;36669;51.428;21.162;2024-03-17T05:26:04;4.70;99.90
44886;DHT22;36669;51.428;21.162;2024-03-17T05:28:31;4.70;99.90
44886;DHT22;36669;51.428;21.162;2024-03-17T05:31:01;4.70;99.90
44886;DHT22;36669;51.428;21.162;2024-03-17T05:33:31;4.70;99.90
44886;DHT22;36669;51.428;21.162;2024-03-17T05:36:04;4.70;99.90
44886;DHT22;36669;51.428;21.162;2024-03-17T05:38:32;4.80;99.90
44886;DHT22;36669;51.428;21.162;2024-03-17T05:41:07;4.80;99.90
44886;DHT22;36669;51.428;21.162;2024-03-17T05:43:34;4.80;99.90
44886;DHT22;36669;51.428;21.162;2024-03-17T05:46:07;4.90;99.90
44886;DHT22;36669;51.428;21.162;2024-03-17T05:48:39;4.90;99.90
44886;DHT22;36669;51.428;21.162;2024-03-17T05:51:28;4.90;99.90
44886;DHT22;36669;51.428;21.162;2024-03-17T05:53:55;4.90;99.90
44886;DHT22;36669;51.428;21.162;2024-03-17T05:56:28;4.90;99.90
44886;DHT22;36669;51.428;21.162;2024-03-17T05:58:53;4.80;99.90
44886;DHT22;36669;51.428;21.162;2024-03-17T06:01:22;4.90;99.90
44886;DHT22;36669;51.428;21.162;2024-03-17T06:03:50;4.90;99.90
44886;DHT22;36669;51.428;21.162;2024-03-17T06:06:16;4.80;99.90
44886;DHT22;36669;51.428;21.162;2024-03-17T06:08:43;4.90;99.90
44886;DHT22;36669;51.428;21.162;2024-03-17T06:11:10;4.90;99.90
44886;DHT22;36669;51.428;21.162;2024-03-17T06:13:37;4.90;99.90
44886;DHT22;36669;51.428;21.162;2024-03-17T06:16:04;5.00;99.90
44886;DHT22;36669;51.428;21.162;2024-03-17T06:18:33;4.90;99.90
44886;DHT22;36669;51.428;21.162;2024-03-17T06:20:59;5.00;99.90
44886;DHT22;36669;51.428;21.162;2024-03-17T06:23:28;5.00;99.90
44886;DHT22;36669;51.428;21.162;2024-03-17T06:25:55;5.00;99.90
44886;DHT22;36669;51.428;21.162;2024-03-17T06:28:23;5.00;99.90
44886;DHT22;36669;51.428;21.162;2024-03-17T06:30:57;4.90;99.90
44886;DHT22;36669;51.428;21.162;2024-03-17T06:33:26;4.90;99.90
44886;DHT22;36669;51.428;21.162;2024-03-17T06:35:54;4.80;99.90
44886;DHT22;36669;51.428;21.162;2024-03-17T06:38:21;4.90;99.90
44886;DHT22;36669;51.428;21.162;2024-03-17T06:40:51;4.90;99.90
44886;DHT22;36669;51.428;21.162;2024-03-17T06:43:19;4.90;99.90
44886;DHT22;36669;51.428;21.162;2024-03-17T06:45:58;4.90;99.90
44886;DHT22;36669;51.428;21.162;2024-03-17T06:48:29;4.90;99.90
44886;DHT22;36669;51.428;21.162;2024-03-17T06:50:56;4.90;99.90
44886;DHT22;36669;51.428;21.162;2024-03-17T06:53:27;5.00;99.90
44886;DHT22;36669;51.428;21.162;2024-03-17T06:56:00;5.00;99.90
44886;DHT22;36669;51.428;21.162;2024-03-17T06:58:28;5.00;99.90
44886;DHT22;36669;51.428;21.162;2024-03-17T07:00:59;5.00;99.90
44886;DHT22;36669;51.428;21.162;2024-03-17T07:03:27;5.00;99.90
44886;DHT22;36669;51.428;21.162;2024-03-17T07:05:58;5.00;99.90
44886;DHT22;36669;51.428;21.162;2024-03-17T07:08:26;5.00;99.90
44886;DHT22;36669;51.428;21.162;2024-03-17T07:11:15;4.90;99.90
44886;DHT22;36669;51.428;21.162;2024-03-17T07:13:45;4.90;99.90
44886;DHT22;36669;51.428;21.162;2024-03-17T07:16:11;5.00;99.90
44886;DHT22;36669;51.428;21.162;2024-03-17T07:18:37;5.00;99.90
44886;DHT22;36669;51.428;21.162;2024-03-17T07:21:04;5.10;99.90
44886;DHT22;36669;51.428;21.162;2024-03-17T07:23:32;5.10;99.90
44886;DHT22;36669;51.428;21.162;2024-03-17T07:25:59;5.10;99.90
44886;DHT22;36669;51.428;21.162;2024-03-17T07:28:26;5.10;99.90
44886;DHT22;36669;51.428;21.162;2024-03-17T07:30:59;5.00;99.90
44886;DHT22;36669;51.428;21.162;2024-03-17T07:33:29;5.00;99.90
44886;DHT22;36669;51.428;21.162;2024-03-17T07:35:55;5.10;99.90
44886;DHT22;36669;51.428;21.162;2024-03-17T07:38:27;5.00;99.90
44886;DHT22;36669;51.428;21.162;2024-03-17T07:41:03;5.10;99.90
44886;DHT22;36669;51.428;21.162;2024-03-17T07:43:39;5.10;99.90
44886;DHT22;36669;51.428;21.162;2024-03-17T07:46:08;5.00;99.90
44886;DHT22;36669;51.428;21.162;2024-03-17T07:48:44;5.00;99.90
44886;DHT22;36669;51.428;21.162;2024-03-17T07:51:14;5.10;99.90
44886;DHT22;36669;51.428;21.162;2024-03-17T07:53:46;5.10;99.90
44886;DHT22;36669;51.428;21.162;2024-03-17T07:56:15;5.10;99.90
44886;DHT22;36669;51.428;21.162;2024-03-17T07:58:47;5.10;99.90
44886;DHT22;36669;51.428;21.162;2024-03-17T08:01:17;5.00;99.90
44886;DHT22;36669;51.428;21.162;2024-03-17T08:03:48;5.00;99.90
44886;DHT22;36669;51.428;21.162;2024-03-17T08:06:19;5.00;99.90
44886;DHT22;36669;51.428;21.162;2024-03-17T08:08:46;5.00;99.90
44886;DHT22;36669;51.428;21.162;2024-03-17T08:11:12;5.10;99.90
44886;DHT22;36669;51.428;21.162;2024-03-17T08:13:40;5.30;99.90
44886;DHT22;36669;51.428;21.162;2024-03-17T08:16:07;5.20;99.90
44886;DHT22;36669;51.428;21.162;2024-03-17T08:18:39;5.40;99.90
44886;DHT22;36669;51.428;21.162;2024-03-17T08:21:07;5.40;99.90
44886;DHT22;36669;51.428;21.162;2024-03-17T08:23:34;5.50;99.90
44886;DHT22;36669;51.428;21.162;2024-03-17T08:26:10;5.50;99.90
44886;DHT22;36669;51.428;21.162;2024-03-17T08:28:36;5.80;99.90
44886;DHT22;36669;51.428;21.162;2024-03-17T08:31:04;5.80;99.90
44886;DHT22;36669;51.428;21.162;2024-03-17T08:33:30;5.90;99.90
44886;DHT22;36669;51.428;21.162;2024-03-17T08:36:03;6.00;99.90
44886;DHT22;36669;51.428;21.162;2024-03-17T08:38:33;6.00;99.90
44886;DHT22;36669;51.428;21.162;2024-03-17T08:41:09;5.90;99.90
44886;DHT22;36669;51.428;21.162;2024-03-17T08:43:39;6.00;99.90
44886;DHT22;36669;51.428;21.162;2024-03-17T08:46:09;6.10;99.90
44886;DHT22;36669;51.428;21.162;2024-03-17T08:48:38;6.10;99.90
44886;DHT22;36669;51.428;21.162;2024-03-17T08:51:07;5.90;99.90
44886;DHT22;36669;51.428;21.162;2024-03-17T08:53:33;5.90;99.90
44886;DHT22;36669;51.428;21.162;2024-03-17T08:56:12;5.90;99.90
44886;DHT22;36669;51.428;21.162;2024-03-17T08:58:43;5.90;99.90
44886;DHT22;36669;51.428;21.162;2024-03-17T09:01:13;5.90;99.90
44886;DHT22;36669;51.428;21.162;2024-03-17T09:03:41;6.00;99.90
44886;DHT22;36669;51.428;21.162;2024-03-17T09:06:18;6.10;99.90
44886;DHT22;36669;51.428;21.162;2024-03-17T09:08:56;6.00;99.90
44886;DHT22;36669;51.428;21.162;2024-03-17T09:11:23;6.00;99.90
44886;DHT22;36669;51.428;21.162;2024-03-17T09:13:51;6.10;99.90
44886;DHT22;36669;51.428;21.162;2024-03-17T09:16:20;6.10;99.90
44886;DHT22;36669;51.428;21.162;2024-03-17T09:18:50;6.10;99.90
44886;DHT22;36669;51.428;21.162;2024-03-17T09:21:16;6.10;99.90
44886;DHT22;36669;51.428;21.162;2024-03-17T09:23:44;6.20;99.90
44886;DHT22;36669;51.428;21.162;2024-03-17T09:26:11;6.30;99.90
44886;DHT22;36669;51.428;21.162;2024-03-17T09:28:42;6.30;99.90
44886;DHT22;36669;51.428;21.162;2024-03-17T09:31:07;6.30;99.90
44886;DHT22;36669;51.428;21.162;2024-03-17T09:33:35;6.10;99.90
44886;DHT22;36669;51.428;21.162;2024-03-17T09:36:12;6.20;99.90
44886;DHT22;36669;51.428;21.162;2024-03-17T09:38:41;6.20;99.90
44886;DHT22;36669;51.428;21.162;2024-03-17T09:41:21;6.30;99.90
44886;DHT22;36669;51.428;21.162;2024-03-17T09:43:54;6.30;99.90
44886;DHT22;36669;51.428;21.162;2024-03-17T09:46:26;6.30;99.90
44886;DHT22;36669;51.428;21.162;2024-03-17T09:48:54;6.20;99.90
44886;DHT22;36669;51.428;21.162;2024-03-17T09:51:27;6.10;99.90
44886;DHT22;36669;51.428;21.162;2024-03-17T09:53:56;6.00;99.90
44886;DHT22;36669;51.428;21.162;2024-03-17T09:56:21;6.10;99.90
44886;DHT22;36669;51.428;21.162;2024-03-17T09:58:50;6.00;99.90
44886;DHT22;36669;51.428;21.162;2024-03-17T10:01:18;6.00;99.90
44886;DHT22;36669;51.428;21.162;2024-03-17T10:03:48;6.00;99.90
44886;DHT22;36669;51.428;21.162;2024-03-17T10:06:22;6.00;99.90
44886;DHT22;36669;51.428;21.162;2024-03-17T10:08:50;6.10;99.90
44886;DHT22;36669;51.428;21.162;2024-03-17T10:11:23;6.00;99.90
44886;DHT22;36669;51.428;21.162;2024-03-17T10:14:05;6.00;99.90
44886;DHT22;36669;51.428;21.162;2024-03-17T10:16:34;6.10;99.90
44886;DHT22;36669;51.428;21.162;2024-03-17T10:21:37;6.20;99.90
44886;DHT22;36669;51.428;21.162;2024-03-17T10:24:23;6.20;99.90
44886;DHT22;36669;51.428;21.162;2024-03-17T10:26:53;6.20;99.90
44886;DHT22;36669;51.428;21.162;2024-03-17T10:29:35;6.20;99.90
44886;DHT22;36669;51.428;21.162;2024-03-17T10:32:16;6.10;99.90
44886;DHT22;36669;51.428;21.162;2024-03-17T10:34:43;6.00;99.90
44886;DHT22;36669;51.428;21.162;2024-03-17T10:37:20;6.10;99.90
44886;DHT22;36669;51.428;21.162;2024-03-17T10:39:52;6.10;99.90
44886;DHT22;36669;51.428;21.162;2024-03-17T10:42:29;6.10;99.90
44886;DHT22;36669;51.428;21.162;2024-03-17T10:45:06;6.10;99.90
44886;DHT22;36669;51.428;21.162;2024-03-17T10:47:36;6.10;99.90
44886;DHT22;36669;51.428;21.162;2024-03-17T10:50:02;6.10;99.90
44886;DHT22;36669;51.428;21.162;2024-03-17T10:52:34;6.10;99.90
44886;DHT22;36669;51.428;21.162;2024-03-17T10:55:08;6.10;99.90
44886;DHT22;36669;51.428;21.162;2024-03-17T10:57:53;6.10;99.90
44886;DHT22;36669;51.428;21.162;2024-03-17T11:00:39;6.30;99.90
44886;DHT22;36669;51.428;21.162;2024-03-17T11:03:09;6.30;99.90
44886;DHT22;36669;51.428;21.162;2024-03-17T11:05:38;6.50;99.90
44886;DHT22;36669;51.428;21.162;2024-03-17T11:08:05;6.50;99.90
44886;DHT22;36669;51.428;21.162;2024-03-17T11:10:34;6.40;99.90
44886;DHT22;36669;51.428;21.162;2024-03-17T11:13:02;6.30;99.90
44886;DHT22;36669;51.428;21.162;2024-03-17T11:20:41;6.30;99.90
44886;DHT22;36669;51.428;21.162;2024-03-17T11:23:08;6.30;99.90
44886;DHT22;36669;51.428;21.162;2024-03-17T11:25:40;6.30;99.90
44886;DHT22;36669;51.428;21.162;2024-03-17T11:28:09;6.40;99.90
44886;DHT22;36669;51.428;21.162;2024-03-17T11:30:49;6.30;99.90
44886;DHT22;36669;51.428;21.162;2024-03-17T11:41:52;6.30;99.90
44886;DHT22;36669;51.428;21.162;2024-03-17T11:47:06;6.20;99.90
44886;DHT22;36669;51.428;21.162;2024-03-17T11:49:38;6.30;99.90
44886;DHT22;36669;51.428;21.162;2024-03-17T11:52:15;6.30;99.90
44886;DHT22;36669;51.428;21.162;2024-03-17T11:54:49;6.30;99.90
44886;DHT22;36669;51.428;21.162;2024-03-17T11:57:26;6.30;99.90
44886;DHT22;36669;51.428;21.162;2024-03-17T11:59:54;6.30;99.90
44886;DHT22;36669;51.428;21.162;2024-03-17T12:02:31;6.30;99.90
44886;DHT22;36669;51.428;21.162;2024-03-17T12:05:00;6.30;99.90
44886;DHT22;36669;51.428;21.162;2024-03-17T12:07:27;6.30;99.90
44886;DHT22;36669;51.428;21.162;2024-03-17T12:09:57;6.30;99.90
44886;DHT22;36669;51.428;21.162;2024-03-17T12:12:28;6.30;99.90
44886;DHT22;36669;51.428;21.162;2024-03-17T12:15:03;6.30;99.90
44886;DHT22;36669;51.428;21.162;2024-03-17T12:17:32;6.20;99.90
44886;DHT22;36669;51.428;21.162;2024-03-17T12:19:59;6.20;99.90
44886;DHT22;36669;51.428;21.162;2024-03-17T12:22:27;6.20;99.90
44886;DHT22;36669;51.428;21.162;2024-03-17T12:24:59;6.10;99.90
44886;DHT22;36669;51.428;21.162;2024-03-17T12:27:39;6.10;99.90
44886;DHT22;36669;51.428;21.162;2024-03-17T12:30:09;6.10;99.90
44886;DHT22;36669;51.428;21.162;2024-03-17T12:32:37;6.00;99.90
44886;DHT22;36669;51.428;21.162;2024-03-17T12:35:14;6.00;99.90
44886;DHT22;36669;51.428;21.162;2024-03-17T12:37:43;6.00;99.90
44886;DHT22;36669;51.428;21.162;2024-03-17T12:40:18;5.90;99.90
44886;DHT22;36669;51.428;21.162;2024-03-17T12:42:51;5.90;99.90
44886;DHT22;36669;51.428;21.162;2024-03-17T12:45:23;6.00;99.90
44886;DHT22;36669;51.428;21.162;2024-03-17T12:47:51;5.90;99.90
44886;DHT22;36669;51.428;21.162;2024-03-17T12:50:19;5.90;99.90
44886;DHT22;36669;51.428;21.162;2024-03-17T12:52:56;5.90;99.90
44886;DHT22;36669;51.428;21.162;2024-03-17T12:55:24;5.90;99.90
44886;DHT22;36669;51.428;21.162;2024-03-17T12:58:11;5.80;99.90
44886;DHT22;36669;51.428;21.162;2024-03-17T13:01:02;5.80;99.90
44886;DHT22;36669;51.428;21.162;2024-03-17T13:03:34;5.70;99.90
44886;DHT22;36669;51.428;21.162;2024-03-17T13:06:01;5.70;99.90
44886;DHT22;36669;51.428;21.162;2024-03-17T13:08:38;5.70;99.90
44886;DHT22;36669;51.428;21.162;2024-03-17T13:11:24;5.70;99.90
44886;DHT22;36669;51.428;21.162;2024-03-17T13:13:51;5.70;99.90
44886;DHT22;36669;51.428;21.162;2024-03-17T13:16:21;5.70;99.90
44886;DHT22;36669;51.428;21.162;2024-03-17T13:18:48;5.60;99.90
44886;DHT22;36669;51.428;21.162;2024-03-17T13:21:15;5.60;99.90
44886;DHT22;36669;51.428;21.162;2024-03-17T13:23:41;5.60;99.90
44886;DHT22;36669;51.428;21.162;2024-03-17T13:26:06;5.60;99.90
44886;DHT22;36669;51.428;21.162;2024-03-17T13:28:35;5.60;99.90
44886;DHT22;36669;51.428;21.162;2024-03-17T13:31:02;5.50;99.90
44886;DHT22;36669;51.428;21.162;2024-03-17T13:33:31;5.50;99.90
44886;DHT22;36669;51.428;21.162;2024-03-17T13:35:58;5.50;99.90
44886;DHT22;36669;51.428;21.162;2024-03-17T13:38:26;5.40;99.90
44886;DHT22;36669;51.428;21.162;2024-03-17T13:40:56;5.30;99.90
44886;DHT22;36669;51.428;21.162;2024-03-17T13:43:21;5.30;99.90
44886;DHT22;36669;51.428;21.162;2024-03-17T13:45:48;5.20;99.90
44886;DHT22;36669;51.428;21.162;2024-03-17T13:48:17;5.20;99.90
44886;DHT22;36669;51.428;21.162;2024-03-17T13:50:45;5.10;99.90
44886;DHT22;36669;51.428;21.162;2024-03-17T13:53:13;5.10;99.90
44886;DHT22;36669;51.428;21.162;2024-03-17T13:55:38;5.10;99.90
44886;DHT22;36669;51.428;21.162;2024-03-17T13:58:05;5.00;99.90
44886;DHT22;36669;51.428;21.162;2024-03-17T14:00:34;5.00;99.90
44886;DHT22;36669;51.428;21.162;2024-03-17T14:03:04;5.00;99.90
44886;DHT22;36669;51.428;21.162;2024-03-17T14:05:31;5.00;99.90
44886;DHT22;36669;51.428;21.162;2024-03-17T14:07:59;5.00;99.90
44886;DHT22;36669;51.428;21.162;2024-03-17T14:10:26;5.00;99.90
44886;DHT22;36669;51.428;21.162;2024-03-17T14:12:53;5.00;99.90
44886;DHT22;36669;51.428;21.162;2024-03-17T14:15:20;5.00;99.90
44886;DHT22;36669;51.428;21.162;2024-03-17T14:17:47;5.00;99.90
44886;DHT22;36669;51.428;21.162;2024-03-17T14:20:16;5.00;99.90
44886;DHT22;36669;51.428;21.162;2024-03-17T14:22:46;5.00;99.90
44886;DHT22;36669;51.428;21.162;2024-03-17T14:25:25;5.00;99.90
44886;DHT22;36669;51.428;21.162;2024-03-17T14:27:52;5.00;99.90
44886;DHT22;36669;51.428;21.162;2024-03-17T14:30:22;5.00;99.90
44886;DHT22;36669;51.428;21.162;2024-03-17T14:32:47;5.00;99.90
44886;DHT22;36669;51.428;21.162;2024-03-17T14:35:26;5.00;99.90
44886;DHT22;36669;51.428;21.162;2024-03-17T14:37:56;5.10;99.90
44886;DHT22;36669;51.428;21.162;2024-03-17T14:40:26;5.10;99.90
44886;DHT22;36669;51.428;21.162;2024-03-17T14:42:54;5.10;99.90
44886;DHT22;36669;51.428;21.162;2024-03-17T14:45:24;5.10;99.90
44886;DHT22;36669;51.428;21.162;2024-03-17T14:47:52;5.10;99.90
44886;DHT22;36669;51.428;21.162;2024-03-17T14:50:19;5.20;99.90
44886;DHT22;36669;51.428;21.162;2024-03-17T14:52:46;5.20;99.90
44886;DHT22;36669;51.428;21.162;2024-03-17T14:55:13;5.30;99.90
44886;DHT22;36669;51.428;21.162;2024-03-17T14:57:42;5.30;99.90
44886;DHT22;36669;51.428;21.162;2024-03-17T15:00:11;5.30;99.90
44886;DHT22;36669;51.428;21.162;2024-03-17T15:02:47;5.30;99.90
44886;DHT22;36669;51.428;21.162;2024-03-17T15:05:15;5.30;99.90
44886;DHT22;36669;51.428;21.162;2024-03-17T15:07:42;5.20;99.90
44886;DHT22;36669;51.428;21.162;2024-03-17T15:10:08;5.20;99.90
44886;DHT22;36669;51.428;21.162;2024-03-17T15:12:34;5.20;99.90
44886;DHT22;36669;51.428;21.162;2024-03-17T15:15:02;5.20;99.90
44886;DHT22;36669;51.428;21.162;2024-03-17T15:17:27;5.20;99.90
44886;DHT22;36669;51.428;21.162;2024-03-17T15:19:54;5.20;99.90
44886;DHT22;36669;51.428;21.162;2024-03-17T15:22:20;5.20;99.90
44886;DHT22;36669;51.428;21.162;2024-03-17T15:24:47;5.20;99.90
44886;DHT22;36669;51.428;21.162;2024-03-17T15:27:15;5.20;99.90
44886;DHT22;36669;51.428;21.162;2024-03-17T15:29:42;5.10;99.90
44886;DHT22;36669;51.428;21.162;2024-03-17T15:32:10;5.10;99.90
44886;DHT22;36669;51.428;21.162;2024-03-17T15:34:41;5.20;99.90
44886;DHT22;36669;51.428;21.162;2024-03-17T15:37:08;5.10;99.90
44886;DHT22;36669;51.428;21.162;2024-03-17T15:39:36;5.10;99.90
44886;DHT22;36669;51.428;21.162;2024-03-17T15:42:03;5.10;99.90
44886;DHT22;36669;51.428;21.162;2024-03-17T15:44:32;5.10;99.90
44886;DHT22;36669;51.428;21.162;2024-03-17T15:46:59;5.10;99.90
44886;DHT22;36669;51.428;21.162;2024-03-17T15:49:26;5.10;99.90
44886;DHT22;36669;51.428;21.162;2024-03-17T15:51:55;5.10;99.90
44886;DHT22;36669;51.428;21.162;2024-03-17T15:54:22;5.00;99.90
44886;DHT22;36669;51.428;21.162;2024-03-17T15:56:50;5.00;99.90
44886;DHT22;36669;51.428;21.162;2024-03-17T15:59:18;4.90;99.90
44886;DHT22;36669;51.428;21.162;2024-03-17T16:01:44;4.90;99.90
44886;DHT22;36669;51.428;21.162;2024-03-17T16:04:11;4.90;99.90